Naps Table

Saturday July 30th

Saturday July 30th Naps Table
Selection Race Tipster W L £1 Stake Sky Bet
Lady Joanna Vassa (IRE) 13:45 Don The Press, York Ebor 0 5 -1.26499 11/43.75
Full Intention 13:50 Thi Glasgow Evening Times Jeffrey Ross 0 3 -20.91480 1/21.50
Gamesome (FR) 14:00 Gwd The Sun On Sunday Sirius 0 4 +4.161004 16/117.00
Lightning Charlie 14:00 Gwd Irish Post Karl Hedley 0 2 +3.751003 25/126.00
Dougan 14:00 Gwd The Sun Templegate 1 0 -2.55498 10/111.00
Seeking Magic 14:00 Gwd Yorkshire Post The Duke 0 5 -3.07497 14/115.00
El Viento (FR) 14:00 Gwd Star Phil Rostron 1 0 -28.23472 40/141.00
Dal Harraild 14:35 Gwd Racing Post RP Ratings 2 0 +15.071015 5/16.00
Move Up 14:35 Gwd Sunday Mirror Gary Nutting 0 2 -15.29485 6/17.00
Dal Harraild 14:35 Gwd Racing Post Postdata 1 0 -17.13483 5/16.00
Dal Harraild 14:35 Gwd Racing Post The Edge 0 8 -32.34468 5/16.00
Danehill Kodiac (IRE) 14:35 Gwd The Irish Field Rory Delargy 0 4 -34.0466 SP1000
Hot Spice 15:00 Thi Sunday Express Jason Heavey 0 5 +2.671002 16/117.00
Minding (IRE) 15:10 Gwd Daily Express The Scout 0 1 -21.08479 1/41.25
Carol (IRE) 15:25 Nkt Western Morning News West Tip 1 0 -46.08454 11/26.50
Suzi's Connoisseur 15:45 Gwd Morning Star Farringdon 1 0 +17.111017 33/134.00
Dancing Star 15:45 Gwd Scottish Express Chris Goulding 0 2 +4.951004 9/25.50
Orion's Bow 15:45 Gwd Racing Post Spotlight 2 0 +2.061002 6/17.00
Withernsea (IRE) 15:45 Gwd The Times Rob Wright 0 4 +1.931001 18/119.00
Growl 15:45 Gwd Sheffield Star Fortunatus 0 5 +0.681000 16/117.00
Growl 15:45 Gwd Daily Post Mercury 0 4 +0.21000 16/117.00
Ridge Ranger (IRE) 15:45 Gwd Daily Mirror Newsboy 0 3 -5.77495 11/112.00
Orion's Bow 15:45 Gwd Yorkshire Evening Post Lee Sobot 1 0 -13.49487 6/17.00
Dancing Star 15:45 Gwd Sunday Mail Rockavon 1 0 -17.56483 9/25.50
Dancing Star 15:45 Gwd Racing Post Lambourn 0 5 -17.71483 9/25.50
Dancing Star 15:45 Gwd Oldham Evening Chronicle Kevin Richardson 0 1 -19.5481 9/25.50
Raucous 15:45 Gwd Racing Post Newmarket 0 1 -26.16474 16/117.00
Spring Loaded (IRE) 15:45 Gwd Liverpool Echo Chris Wright 0 11 -28.13472 33/134.00
Dancing Star 15:45 Gwd Sunday Telegraph Whistler 0 1 -31.73469 9/25.50
Toofi (FR) 15:45 Gwd Daily Record Garry Owen 0 1 -34.83466 14/115.00
Justice Smart (IRE) 16:00 Nkt Gloucestershire Echo Melissa Jones 0 2 -18.57482 6/17.00
Manolito De Madrid (GER) 16:20 Gwd Blackpool Gazette Steve Simpson 0 3 -0.03500 20/121.00
Venturous (IRE) 16:55 Gwd Weekender Paul Kealy 0 3 +46.251046 5/16.00
Bobby Wheeler (IRE) 16:55 Gwd The Guardian 1 0 -35.35465 12/113.00
Justice Lady (IRE) 17:15 Don Belfast Newsletter Wise Owl 0 2 -3.47497 7/42.75
Laila Honiwillow 17:15 Don Daily Mail Robin Goodfellow 0 9 -23.02477 13/82.62
Edward Lewis 17:45 Nkt Daily Telegraph Marlborough 0 1 +13.971013 7/24.50
Bathos (IRE) 18:00 Gwd Racing Post The North 0 6 +3.841003 5/16.00
Craftsmanship (FR) 18:00 Gwd Daily Star Sunday Moorestyle 0 7 -37.99463 14/115.00
Cliff Face (IRE) 19:30 Ling The Star Patrick Weaver 0 1 +0.361000 Evs2.00
Lara Carbonara (IRE) 20:45 Ham The Scotsman Glendale 0 1 +34.861034 5/16.00
Falcon's Fire (IRE) 20:45 Ham Racing and Football Outlook 0 1 -19.03481 4/15.00

© Racing Post